sensor_id;sensor_type;location;lat;lon;timestamp;pressure;altitude;pressure_sealevel;temperature;humidity
50087;BME280;35967;50.718;7.050;2022-12-10T00:02:02;99949.69;;;2.43;76.71
50087;BME280;35967;50.718;7.050;2022-12-10T00:12:05;99949.69;;;2.40;77.93
50087;BME280;35967;50.718;7.050;2022-12-10T00:22:10;99958.16;;;2.31;77.91
50087;BME280;35967;50.718;7.050;2022-12-10T00:32:13;99964.91;;;2.11;78.94
50087;BME280;35967;50.718;7.050;2022-12-10T00:42:17;99960.69;;;2.13;79.48
50087;BME280;35967;50.718;7.050;2022-12-10T00:52:20;99955.59;;;2.24;80.00
50087;BME280;35967;50.718;7.050;2022-12-10T01:02:25;99957.25;;;1.78;82.62
50087;BME280;35967;50.718;7.050;2022-12-10T01:12:28;99973.38;;;2.22;81.71
50087;BME280;35967;50.718;7.050;2022-12-10T01:22:33;99982.69;;;2.31;81.65
50087;BME280;35967;50.718;7.050;2022-12-10T01:32:36;99993.72;;;2.33;82.37
50087;BME280;35967;50.718;7.050;2022-12-10T01:42:42;100000.47;;;2.37;82.65
50087;BME280;35967;50.718;7.050;2022-12-10T01:52:48;100009.78;;;2.38;82.27
50087;BME280;35967;50.718;7.050;2022-12-10T02:02:57;100009.78;;;2.33;82.66
50087;BME280;35967;50.718;7.050;2022-12-10T02:13:07;100022.47;;;2.23;82.88
50087;BME280;35967;50.718;7.050;2022-12-10T02:23:16;100019.03;;;1.93;85.31
50087;BME280;35967;50.718;7.050;2022-12-10T02:33:24;100021.59;;;2.07;84.78
50087;BME280;35967;50.718;7.050;2022-12-10T02:43:30;100016.50;;;2.03;84.63
50087;BME280;35967;50.718;7.050;2022-12-10T02:53:41;100012.25;;;1.92;84.82
50087;BME280;35967;50.718;7.050;2022-12-10T03:03:48;100020.63;;;1.67;85.80
50087;BME280;35967;50.718;7.050;2022-12-10T03:13:57;100033.34;;;1.72;85.32
50087;BME280;35967;50.718;7.050;2022-12-10T03:24:05;100028.25;;;1.77;85.61
50087;BME280;35967;50.718;7.050;2022-12-10T03:34:10;100033.31;;;1.64;85.23
50087;BME280;35967;50.718;7.050;2022-12-10T03:44:26;100030.53;;;1.21;86.64
50087;BME280;35967;50.718;7.050;2022-12-10T03:54:31;100032.25;;;1.26;86.66
50087;BME280;35967;50.718;7.050;2022-12-10T04:04:34;100037.34;;;1.23;86.72
50087;BME280;35967;50.718;7.050;2022-12-10T04:14:39;100044.25;;;1.55;85.95
50087;BME280;35967;50.718;7.050;2022-12-10T04:25:00;100048.47;;;1.56;85.28
50087;BME280;35967;50.718;7.050;2022-12-10T04:35:24;100056.16;;;1.77;84.65
50087;BME280;35967;50.718;7.050;2022-12-10T04:45:27;100055.34;;;1.78;83.87
50087;BME280;35967;50.718;7.050;2022-12-10T04:55:31;100059.63;;;1.91;84.40
50087;BME280;35967;50.718;7.050;2022-12-10T05:05:34;100058.78;;;1.87;84.85
50087;BME280;35967;50.718;7.050;2022-12-10T05:15:39;100059.63;;;1.88;84.24
50087;BME280;35967;50.718;7.050;2022-12-10T05:25:42;100054.53;;;1.88;84.91
50087;BME280;35967;50.718;7.050;2022-12-10T05:35:57;100054.56;;;1.96;85.07
50087;BME280;35967;50.718;7.050;2022-12-10T05:46:01;100066.44;;;1.98;84.25
50087;BME280;35967;50.718;7.050;2022-12-10T05:56:07;100080.75;;;1.88;85.31
50087;BME280;35967;50.718;7.050;2022-12-10T06:06:11;100083.97;;;1.55;85.61
50087;BME280;35967;50.718;7.050;2022-12-10T06:16:16;100078.13;;;1.67;86.43
50087;BME280;35967;50.718;7.050;2022-12-10T06:26:21;100089.25;;;1.94;85.49
50087;BME280;35967;50.718;7.050;2022-12-10T06:36:26;100091.69;;;1.75;86.29
50087;BME280;35967;50.718;7.050;2022-12-10T06:46:47;100095.09;;;1.79;85.58
50087;BME280;35967;50.718;7.050;2022-12-10T06:56:51;100109.50;;;1.86;85.42
50087;BME280;35967;50.718;7.050;2022-12-10T07:06:54;100119.63;;;1.78;85.05
50087;BME280;35967;50.718;7.050;2022-12-10T07:16:59;100124.72;;;1.84;85.20
50087;BME280;35967;50.718;7.050;2022-12-10T07:27:04;100134.91;;;1.91;85.02
50087;BME280;35967;50.718;7.050;2022-12-10T07:37:09;100144.25;;;1.95;84.53
50087;BME280;35967;50.718;7.050;2022-12-10T07:47:12;100146.78;;;1.95;84.12
50087;BME280;35967;50.718;7.050;2022-12-10T07:57:17;100162.78;;;1.81;84.48
50087;BME280;35967;50.718;7.050;2022-12-10T08:07:20;100164.47;;;1.82;85.09
50087;BME280;35967;50.718;7.050;2022-12-10T08:17:25;100178.09;;;1.92;84.32
50087;BME280;35967;50.718;7.050;2022-12-10T08:27:28;100175.53;;;1.97;83.45
50087;BME280;35967;50.718;7.050;2022-12-10T08:37:32;100187.34;;;1.88;84.53
50087;BME280;35967;50.718;7.050;2022-12-10T08:47:35;100202.59;;;1.93;84.83
50087;BME280;35967;50.718;7.050;2022-12-10T08:57:40;100207.69;;;1.90;84.91
50087;BME280;35967;50.718;7.050;2022-12-10T09:07:43;100207.78;;;2.10;85.49
50087;BME280;35967;50.718;7.050;2022-12-10T09:17:47;100203.53;;;2.03;85.90
50087;BME280;35967;50.718;7.050;2022-12-10T09:27:50;100221.25;;;2.01;85.38
50087;BME280;35967;50.718;7.050;2022-12-10T09:37:55;100220.50;;;2.18;81.80
50087;BME280;35967;50.718;7.050;2022-12-10T09:48:01;100222.16;;;2.08;80.21
50087;BME280;35967;50.718;7.050;2022-12-10T09:58:14;100227.22;;;2.03;77.50
50087;BME280;35967;50.718;7.050;2022-12-10T10:08:25;100223.00;;;2.05;77.31
50087;BME280;35967;50.718;7.050;2022-12-10T10:18:36;100226.41;;;2.09;75.79
50087;BME280;35967;50.718;7.050;2022-12-10T10:28:41;100223.63;;;1.73;74.43
50087;BME280;35967;50.718;7.050;2022-12-10T10:38:48;100228.84;;;1.94;74.92
50087;BME280;35967;50.718;7.050;2022-12-10T10:48:51;100239.97;;;2.20;73.85
50087;BME280;35967;50.718;7.050;2022-12-10T10:58:58;100227.25;;;2.08;73.60
50087;BME280;35967;50.718;7.050;2022-12-10T11:09:04;100234.03;;;2.15;73.07
50087;BME280;35967;50.718;7.050;2022-12-10T11:19:19;100231.50;;;2.14;72.46
50087;BME280;35967;50.718;7.050;2022-12-10T11:29:33;100225.94;;;3.36;85.44
50087;BME280;35967;50.718;7.050;2022-12-10T11:39:56;100229.03;;;2.31;72.65
50087;BME280;35967;50.718;7.050;2022-12-10T11:50:14;100240.91;;;2.33;72.80
50087;BME280;35967;50.718;7.050;2022-12-10T12:00:22;100235.84;;;2.38;70.81
50087;BME280;35967;50.718;7.050;2022-12-10T12:10:38;100236.66;;;2.32;71.11
50087;BME280;35967;50.718;7.050;2022-12-10T12:21:07;100246.88;;;2.39;70.47
50087;BME280;35967;50.718;7.050;2022-12-10T12:31:14;100251.19;;;2.58;71.04
50087;BME280;35967;50.718;7.050;2022-12-10T12:41:29;100245.16;;;2.31;70.39
50087;BME280;35967;50.718;7.050;2022-12-10T12:51:38;100247.78;;;2.58;70.20
50087;BME280;35967;50.718;7.050;2022-12-10T13:01:50;100233.38;;;2.58;69.71
50087;BME280;35967;50.718;7.050;2022-12-10T13:12:26;100247.03;;;2.83;70.74
50087;BME280;35967;50.718;7.050;2022-12-10T13:22:55;100240.28;;;2.87;69.71
50087;BME280;35967;50.718;7.050;2022-12-10T13:33:14;100238.53;;;2.71;69.47
50087;BME280;35967;50.718;7.050;2022-12-10T13:43:27;100254.66;;;2.80;69.36
50087;BME280;35967;50.718;7.050;2022-12-10T13:53:56;100263.13;;;2.82;69.75
50087;BME280;35967;50.718;7.050;2022-12-10T14:04:21;100268.16;;;2.70;70.74
50087;BME280;35967;50.718;7.050;2022-12-10T14:14:31;100274.13;;;2.71;71.32
50087;BME280;35967;50.718;7.050;2022-12-10T14:24:38;100275.75;;;2.65;74.78
50087;BME280;35967;50.718;7.050;2022-12-10T14:34:43;100286.03;;;2.87;71.74
50087;BME280;35967;50.718;7.050;2022-12-10T14:44:57;100291.09;;;2.84;72.05
50087;BME280;35967;50.718;7.050;2022-12-10T14:55:03;100298.75;;;2.89;71.36
50087;BME280;35967;50.718;7.050;2022-12-10T15:05:12;100301.25;;;2.76;70.43
50087;BME280;35967;50.718;7.050;2022-12-10T15:15:19;100306.28;;;2.68;69.95
50087;BME280;35967;50.718;7.050;2022-12-10T15:25:28;100300.38;;;2.71;69.59
50087;BME280;35967;50.718;7.050;2022-12-10T15:35:34;100307.09;;;2.60;69.37
50087;BME280;35967;50.718;7.050;2022-12-10T15:45:40;100301.19;;;2.65;69.83
50087;BME280;35967;50.718;7.050;2022-12-10T15:55:44;100300.34;;;2.63;70.02
50087;BME280;35967;50.718;7.050;2022-12-10T16:05:49;100314.75;;;2.64;69.92
50087;BME280;35967;50.718;7.050;2022-12-10T16:15:53;100318.06;;;2.56;70.58
50087;BME280;35967;50.718;7.050;2022-12-10T16:26:00;100321.47;;;2.53;70.79
50087;BME280;35967;50.718;7.050;2022-12-10T16:36:04;100321.38;;;2.39;71.05
50087;BME280;35967;50.718;7.050;2022-12-10T16:46:10;100333.25;;;2.46;70.94
50087;BME280;35967;50.718;7.050;2022-12-10T16:56:16;100322.22;;;2.35;71.29
50087;BME280;35967;50.718;7.050;2022-12-10T17:06:21;100331.56;;;2.45;71.04
50087;BME280;35967;50.718;7.050;2022-12-10T17:16:24;100329.03;;;2.42;71.81
50087;BME280;35967;50.718;7.050;2022-12-10T17:26:30;100330.66;;;2.37;71.74
50087;BME280;35967;50.718;7.050;2022-12-10T17:36:34;100350.16;;;2.35;72.02
50087;BME280;35967;50.718;7.050;2022-12-10T17:46:39;100349.34;;;2.42;71.80
50087;BME280;35967;50.718;7.050;2022-12-10T17:56:42;100345.97;;;2.46;72.07
50087;BME280;35967;50.718;7.050;2022-12-10T18:06:48;100361.06;;;2.23;71.56
50087;BME280;35967;50.718;7.050;2022-12-10T18:16:51;100345.09;;;2.41;71.57
50087;BME280;35967;50.718;7.050;2022-12-10T18:26:55;100357.69;;;2.29;71.97
50087;BME280;35967;50.718;7.050;2022-12-10T18:36:59;100354.28;;;2.24;72.26
50087;BME280;35967;50.718;7.050;2022-12-10T18:47:05;100357.66;;;2.23;72.04
50087;BME280;35967;50.718;7.050;2022-12-10T18:57:09;100356.75;;;2.13;72.65
50087;BME280;35967;50.718;7.050;2022-12-10T19:07:34;100378.88;;;2.29;72.50
50087;BME280;35967;50.718;7.050;2022-12-10T19:17:36;100386.44;;;2.18;72.38
50087;BME280;35967;50.718;7.050;2022-12-10T19:27:41;100381.22;;;2.04;73.05
50087;BME280;35967;50.718;7.050;2022-12-10T19:38:02;100378.59;;;1.92;73.43
50087;BME280;35967;50.718;7.050;2022-12-10T19:48:29;100385.16;;;1.70;74.03
50087;BME280;35967;50.718;7.050;2022-12-10T19:58:35;100378.75;;;1.24;76.61
50087;BME280;35967;50.718;7.050;2022-12-10T20:08:40;100381.66;;;1.57;75.46
50087;BME280;35967;50.718;7.050;2022-12-10T20:18:44;100377.78;;;1.16;77.12
50087;BME280;35967;50.718;7.050;2022-12-10T20:28:48;100367.25;;;1.57;75.79
50087;BME280;35967;50.718;7.050;2022-12-10T20:38:52;100369.56;;;2.28;78.34
50087;BME280;35967;50.718;7.050;2022-12-10T20:48:57;100370.81;;;1.73;75.38
50087;BME280;35967;50.718;7.050;2022-12-10T20:59:00;100366.56;;;1.72;74.41
50087;BME280;35967;50.718;7.050;2022-12-10T21:09:05;100368.91;;;1.52;73.94
50087;BME280;35967;50.718;7.050;2022-12-10T21:19:09;100384.69;;;1.26;75.39
50087;BME280;35967;50.718;7.050;2022-12-10T21:29:14;100378.25;;;0.84;76.74
50087;BME280;35967;50.718;7.050;2022-12-10T21:39:17;100375.13;;;1.05;76.73
50087;BME280;35967;50.718;7.050;2022-12-10T21:49:27;100367.81;;;1.27;76.56
50087;BME280;35967;50.718;7.050;2022-12-10T21:59:30;100365.38;;;1.39;75.72
50087;BME280;35967;50.718;7.050;2022-12-10T22:09:34;100373.09;;;1.47;75.68
50087;BME280;35967;50.718;7.050;2022-12-10T22:19:38;100381.50;;;1.43;75.74
50087;BME280;35967;50.718;7.050;2022-12-10T22:29:42;100382.31;;;1.39;75.66
50087;BME280;35967;50.718;7.050;2022-12-10T22:39:46;100388.38;;;1.52;75.61
50087;BME280;35967;50.718;7.050;2022-12-10T22:49:50;100379.06;;;1.51;76.11
50087;BME280;35967;50.718;7.050;2022-12-10T22:59:54;100368.06;;;1.52;75.41
50087;BME280;35967;50.718;7.050;2022-12-10T23:09:58;100377.25;;;0.71;79.45
50087;BME280;35967;50.718;7.050;2022-12-10T23:20:01;100354.31;;;1.31;77.61
50087;BME280;35967;50.718;7.050;2022-12-10T23:30:07;100364.44;;;1.28;77.77
50087;BME280;35967;50.718;7.050;2022-12-10T23:40:10;100375.75;;;1.60;76.89
50087;BME280;35967;50.718;7.050;2022-12-10T23:50:15;100369.16;;;1.77;77.02
